Time;durP1;ratioP1;P1;durP2;ratioP2;P2;SDS_P1;SDS_P2;PMS_P1;PMS_P2;Temp;Humidity;BMP_temperature;BMP_pressure;BME280_temperature;BME280_humidity;BME280_pressure;Samples;Min_cycle;Max_cycle;Signal;HPM_P1;HPM_P2
2021/10/15 00:01:33;;;;;;;14.18;8.40;;;14.10;78.50;;;;;;5070225;28;20029;-83
2021/10/15 00:03:59;;;;;;;11.68;7.72;;;14.10;78.40;;;;;;5086343;28;20470;-84
2021/10/15 00:06:26;;;;;;;11.38;8.07;;;14.10;78.60;;;;;;5089948;28;20102;-83
2021/10/15 00:08:51;;;;;;;14.60;8.23;;;14.10;78.60;;;;;;5072869;28;20024;-83
2021/10/15 00:11:18;;;;;;;13.93;7.40;;;14.10;78.70;;;;;;5090054;28;20028;-85
2021/10/15 00:13:43;;;;;;;12.75;8.07;;;14.00;78.60;;;;;;5073024;28;20036;-85
2021/10/15 00:16:09;;;;;;;12.43;8.02;;;14.10;78.70;;;;;;5089661;28;20035;-83
2021/10/15 00:18:35;;;;;;;10.23;7.30;;;14.00;78.70;;;;;;5089875;28;20024;-84
2021/10/15 00:21:01;;;;;;;12.02;7.93;;;14.00;78.60;;;;;;5073062;28;20059;-83
2021/10/15 00:23:26;;;;;;;9.40;7.40;;;14.00;78.80;;;;;;5080334;28;20025;-83
2021/10/15 00:25:52;;;;;;;10.23;7.55;;;14.00;78.80;;;;;;5068327;28;20024;-83
2021/10/15 00:28:18;;;;;;;9.80;7.38;;;14.00;78.80;;;;;;5069198;28;20024;-83
2021/10/15 00:30:43;;;;;;;11.45;7.70;;;14.00;78.80;;;;;;5096355;28;20024;-85
2021/10/15 00:33:09;;;;;;;11.20;7.85;;;14.00;78.90;;;;;;5072961;28;20032;-85
2021/10/15 00:35:35;;;;;;;11.00;7.28;;;14.00;79.00;;;;;;5075380;28;20047;-85
2021/10/15 00:38:00;;;;;;;10.45;7.95;;;14.00;79.00;;;;;;5073958;28;20056;-85
2021/10/15 00:40:26;;;;;;;11.32;7.53;;;14.00;79.00;;;;;;5099644;28;20048;-85
2021/10/15 00:42:52;;;;;;;10.13;7.90;;;14.00;79.00;;;;;;5064547;28;20113;-84
2021/10/15 00:45:18;;;;;;;11.57;8.52;;;14.00;79.20;;;;;;5077564;28;20089;-84
2021/10/15 00:47:44;;;;;;;10.93;7.82;;;14.00;79.20;;;;;;5076019;28;20028;-84
2021/10/15 00:50:10;;;;;;;11.63;7.88;;;13.90;79.20;;;;;;5077100;28;20077;-84
2021/10/15 00:52:37;;;;;;;16.10;7.90;;;14.00;79.30;;;;;;5075529;28;20060;-84
2021/10/15 00:55:03;;;;;;;10.40;8.25;;;14.00;79.30;;;;;;5082539;28;20055;-84
2021/10/15 00:57:29;;;;;;;12.70;9.05;;;14.00;79.20;;;;;;5075886;28;20115;-84
2021/10/15 00:59:55;;;;;;;10.48;7.93;;;14.00;79.40;;;;;;5076280;28;20103;-84
2021/10/15 01:02:20;;;;;;;12.35;8.00;;;14.00;79.40;;;;;;5075550;28;20032;-84
2021/10/15 01:04:46;;;;;;;13.15;8.00;;;14.00;79.50;;;;;;5047597;28;20024;-84
2021/10/15 01:07:12;;;;;;;14.13;8.70;;;14.00;79.60;;;;;;5083712;28;20052;-84
2021/10/15 01:09:39;;;;;;;9.05;7.00;;;14.00;79.60;;;;;;5073852;28;20063;-83
2021/10/15 01:12:05;;;;;;;11.52;7.93;;;14.00;79.60;;;;;;5059412;28;20035;-84
2021/10/15 01:14:31;;;;;;;11.52;7.78;;;14.00;79.60;;;;;;5072407;28;20036;-84
2021/10/15 01:17:02;;;;;;;11.40;7.82;;;14.00;79.60;;;;;;5092465;28;20035;-84
2021/10/15 01:19:29;;;;;;;13.40;8.33;;;14.00;79.60;;;;;;5092629;28;20053;-83
2021/10/15 01:21:59;;;;;;;11.52;7.47;;;14.00;79.60;;;;;;5075771;28;20478;-84
2021/10/15 01:24:25;;;;;;;12.07;8.32;;;13.90;79.60;;;;;;5092027;28;20073;-83
2021/10/15 01:26:50;;;;;;;11.07;8.13;;;14.00;79.70;;;;;;5075775;28;20032;-83
2021/10/15 01:29:16;;;;;;;9.88;7.97;;;14.00;79.80;;;;;;5058686;28;20103;-84
2021/10/15 01:31:42;;;;;;;12.30;7.03;;;13.90;79.80;;;;;;5075407;28;20028;-83
2021/10/15 01:34:07;;;;;;;10.98;7.93;;;13.90;79.80;;;;;;5071663;28;20384;-84
2021/10/15 01:36:33;;;;;;;10.80;8.02;;;13.90;79.80;;;;;;5104576;28;20048;-83
2021/10/15 01:38:59;;;;;;;12.75;8.52;;;13.90;79.90;;;;;;5071536;28;20051;-84
2021/10/15 01:41:24;;;;;;;13.38;8.57;;;13.90;80.00;;;;;;5058709;28;20025;-84
2021/10/15 01:43:50;;;;;;;11.57;7.90;;;13.90;80.00;;;;;;5071124;28;20033;-84
2021/10/15 01:46:16;;;;;;;11.38;8.20;;;13.90;80.10;;;;;;5055076;28;20128;-84
2021/10/15 01:48:41;;;;;;;11.98;8.77;;;13.90;80.10;;;;;;5071739;28;20087;-84
2021/10/15 01:51:07;;;;;;;12.40;9.00;;;13.90;80.10;;;;;;5072128;28;20438;-83
2021/10/15 01:53:33;;;;;;;10.50;8.20;;;13.90;80.30;;;;;;5055308;28;20086;-84
2021/10/15 01:55:59;;;;;;;11.27;8.95;;;13.90;80.20;;;;;;5052080;28;20470;-84
2021/10/15 01:58:25;;;;;;;14.43;9.50;;;13.90;80.30;;;;;;5055083;28;20539;-84
2021/10/15 02:00:50;;;;;;;12.73;9.13;;;13.90;80.30;;;;;;5071684;28;20035;-84
2021/10/15 02:03:16;;;;;;;12.15;8.82;;;13.90;80.50;;;;;;5038161;28;20028;-84
2021/10/15 02:05:42;;;;;;;9.77;8.35;;;13.90;80.60;;;;;;5071668;28;20066;-83
2021/10/15 02:08:08;;;;;;;10.52;8.50;;;13.90;81.20;;;;;;5054436;28;20043;-84
2021/10/15 02:10:34;;;;;;;11.65;9.20;;;13.80;80.60;;;;;;5051299;28;20025;-84
2021/10/15 02:12:59;;;;;;;13.02;9.93;;;13.80;80.70;;;;;;5049631;28;20024;-84
2021/10/15 02:15:25;;;;;;;12.13;8.20;;;13.80;80.80;;;;;;5054677;28;20171;-84
2021/10/15 02:17:51;;;;;;;12.07;9.18;;;13.90;80.80;;;;;;5070981;28;20028;-84
2021/10/15 02:20:19;;;;;;;12.60;8.80;;;13.80;80.80;;;;;;5054639;28;20120;-84
2021/10/15 02:22:46;;;;;;;13.30;9.25;;;13.90;80.90;;;;;;5059304;28;20017;-84
2021/10/15 02:25:14;;;;;;;16.02;10.07;;;13.80;80.90;;;;;;5056015;28;20028;-85
2021/10/15 02:27:41;;;;;;;11.13;9.88;;;13.80;81.00;;;;;;5061532;28;20479;-85
2021/10/15 02:30:09;;;;;;;12.73;8.77;;;13.80;81.10;;;;;;5063228;28;20024;-85
2021/10/15 02:32:34;;;;;;;14.07;9.82;;;13.80;81.20;;;;;;5054766;28;20032;-85
2021/10/15 02:35:00;;;;;;;15.00;9.52;;;13.80;81.20;;;;;;5059470;28;20123;-85
2021/10/15 02:37:26;;;;;;;10.50;9.05;;;13.80;81.10;;;;;;5068183;28;20044;-85
2021/10/15 02:39:52;;;;;;;14.85;10.02;;;13.80;81.20;;;;;;5058372;28;20044;-85
2021/10/15 02:42:18;;;;;;;13.85;10.32;;;13.80;81.10;;;;;;5057987;28;20051;-85
2021/10/15 02:44:43;;;;;;;12.30;9.80;;;13.80;81.20;;;;;;5092432;28;20099;-84
2021/10/15 02:47:09;;;;;;;14.75;9.60;;;13.80;81.40;;;;;;5060089;28;20028;-84
2021/10/15 02:49:35;;;;;;;12.73;9.93;;;13.70;81.30;;;;;;5071983;28;20440;-84
2021/10/15 02:52:01;;;;;;;11.07;9.05;;;13.80;81.40;;;;;;5086675;28;20405;-83
2021/10/15 02:54:27;;;;;;;13.68;10.65;;;13.70;81.50;;;;;;5090643;28;20028;-83
2021/10/15 02:56:52;;;;;;;14.60;9.85;;;13.70;81.50;;;;;;5107220;28;20028;-84
2021/10/15 02:59:18;;;;;;;11.40;9.95;;;13.70;81.50;;;;;;5090346;28;20721;-84
2021/10/15 03:01:44;;;;;;;14.32;9.98;;;13.70;81.60;;;;;;5086777;28;20047;-84
2021/10/15 03:04:10;;;;;;;12.40;9.95;;;13.70;81.60;;;;;;5053419;28;20021;-83
2021/10/15 03:06:36;;;;;;;14.38;9.77;;;13.70;81.70;;;;;;5073952;28;20498;-84
2021/10/15 03:09:02;;;;;;;12.18;9.50;;;13.70;81.80;;;;;;5090654;28;20024;-84
2021/10/15 03:11:28;;;;;;;13.93;10.38;;;13.70;81.90;;;;;;5090296;28;20024;-84
2021/10/15 03:13:54;;;;;;;13.80;9.98;;;13.70;81.80;;;;;;5081044;28;20063;-84
2021/10/15 03:16:20;;;;;;;13.10;10.15;;;13.70;81.80;;;;;;5091339;28;20036;-84
2021/10/15 03:18:45;;;;;;;12.63;10.43;;;13.70;81.90;;;;;;5056973;28;20056;-85
2021/10/15 03:21:11;;;;;;;13.25;10.50;;;13.70;81.90;;;;;;5069926;28;20119;-84
2021/10/15 03:23:37;;;;;;;16.98;10.63;;;13.70;82.00;;;;;;5083100;28;20020;-84
2021/10/15 03:26:03;;;;;;;14.43;10.48;;;13.70;82.10;;;;;;5090527;28;20112;-84
2021/10/15 03:28:29;;;;;;;14.73;10.55;;;13.70;82.10;;;;;;5073943;28;20020;-84
2021/10/15 03:30:55;;;;;;;12.48;10.45;;;13.70;82.10;;;;;;5083694;28;20562;-84
2021/10/15 03:33:21;;;;;;;17.95;9.95;;;13.70;82.20;;;;;;5063942;28;20039;-84
2021/10/15 03:35:46;;;;;;;15.55;9.50;;;13.70;82.20;;;;;;5073384;28;20046;-84
2021/10/15 03:38:12;;;;;;;14.30;10.55;;;13.70;82.20;;;;;;5073574;28;20876;-84
2021/10/15 03:40:38;;;;;;;16.40;10.60;;;13.70;82.20;;;;;;5076085;28;20052;-84
2021/10/15 03:43:09;;;;;;;14.65;10.13;;;13.70;82.30;;;;;;5072103;28;20036;-84
2021/10/15 03:45:36;;;;;;;16.02;11.20;;;13.70;82.40;;;;;;5053027;28;20029;-84
2021/10/15 03:48:03;;;;;;;15.07;10.77;;;13.70;82.40;;;;;;5078159;28;20055;-83
2021/10/15 03:50:28;;;;;;;12.48;10.32;;;13.70;82.30;;;;;;5089955;28;20020;-85
2021/10/15 03:52:54;;;;;;;12.57;9.30;;;13.70;82.30;;;;;;5081798;28;20032;-85
2021/10/15 03:55:20;;;;;;;15.80;10.15;;;13.70;82.30;;;;;;5086895;28;20032;-85
2021/10/15 03:57:45;;;;;;;16.70;10.90;;;13.60;82.40;;;;;;5065188;28;20040;-84
2021/10/15 04:00:13;;;;;;;12.25;10.80;;;13.60;82.50;;;;;;5052180;28;20024;-84
2021/10/15 04:02:44;;;;;;;15.52;9.80;;;13.60;82.60;;;;;;5077204;28;20032;-83
2021/10/15 04:05:11;;;;;;;13.60;10.18;;;13.60;82.70;;;;;;5086832;28;20107;-83
2021/10/15 04:10:21;;;;;;;13.43;9.80;;;13.60;82.70;;;;;;5089475;28;20085;-83
2021/10/15 04:12:47;;;;;;;14.88;10.02;;;13.60;82.70;;;;;;5084462;28;20028;-83
2021/10/15 04:15:13;;;;;;;15.20;10.68;;;13.60;82.70;;;;;;5076775;28;20031;-83
2021/10/15 04:17:39;;;;;;;14.90;10.65;;;13.60;82.60;;;;;;5073570;28;20052;-83
2021/10/15 04:20:07;;;;;;;14.27;10.80;;;13.60;82.70;;;;;;5102298;27;20036;-85
2021/10/15 04:22:33;;;;;;;16.52;12.30;;;13.60;82.70;;;;;;5073389;28;20013;-85
2021/10/15 04:24:59;;;;;;;15.73;11.13;;;13.60;82.90;;;;;;5085113;28;20042;-83
2021/10/15 04:27:24;;;;;;;15.02;10.98;;;13.60;82.90;;;;;;5073974;28;20036;-83
2021/10/15 04:29:50;;;;;;;13.73;9.77;;;13.60;82.90;;;;;;5076474;28;20024;-84
2021/10/15 04:32:16;;;;;;;18.70;11.07;;;13.60;83.00;;;;;;5085743;28;20109;-84
2021/10/15 04:34:42;;;;;;;14.70;10.95;;;13.60;83.00;;;;;;5092902;28;20468;-85
2021/10/15 04:37:07;;;;;;;15.35;11.02;;;13.60;83.10;;;;;;5088048;28;20100;-83
2021/10/15 04:39:33;;;;;;;10.40;9.32;;;13.60;83.20;;;;;;5093606;28;20566;-83
2021/10/15 04:41:59;;;;;;;13.73;10.48;;;13.60;83.10;;;;;;5076045;28;20107;-84
2021/10/15 04:44:25;;;;;;;13.85;11.60;;;13.60;83.20;;;;;;5095890;28;20020;-83
2021/10/15 04:46:50;;;;;;;12.85;10.45;;;13.60;83.40;;;;;;5066268;28;20493;-84
2021/10/15 04:49:18;;;;;;;12.55;10.30;;;13.60;83.30;;;;;;5077818;28;20028;-84
2021/10/15 04:51:44;;;;;;;14.60;10.85;;;13.60;83.40;;;;;;5097280;28;20111;-84
2021/10/15 04:54:10;;;;;;;14.35;11.25;;;13.60;83.50;;;;;;5097680;28;20105;-84
2021/10/15 04:56:36;;;;;;;18.70;12.27;;;13.60;83.50;;;;;;5115242;28;20577;-85
2021/10/15 04:59:02;;;;;;;14.68;11.65;;;13.60;83.50;;;;;;5080659;28;20016;-85
2021/10/15 05:01:27;;;;;;;15.75;10.70;;;13.60;83.50;;;;;;5064383;28;20032;-85
2021/10/15 05:03:53;;;;;;;14.43;10.55;;;13.60;83.70;;;;;;5076914;28;20035;-84
2021/10/15 05:06:19;;;;;;;15.07;12.18;;;13.50;83.70;;;;;;5087804;28;20028;-85
2021/10/15 05:11:28;;;;;;;12.32;10.70;;;13.50;84.00;;;;;;5100185;28;20040;-84
2021/10/15 05:13:54;;;;;;;14.77;12.07;;;13.50;84.00;;;;;;5079788;28;20519;-84
2021/10/15 05:16:19;;;;;;;14.73;12.20;;;13.50;84.20;;;;;;5062509;28;20046;-85
2021/10/15 05:18:45;;;;;;;16.38;12.25;;;13.50;84.30;;;;;;5080020;28;20398;-85
2021/10/15 05:21:11;;;;;;;14.65;11.63;;;13.60;84.30;;;;;;5071774;28;20505;-84
2021/10/15 05:23:36;;;;;;;16.00;11.63;;;13.60;84.40;;;;;;5095412;28;20030;-84
2021/10/15 05:26:02;;;;;;;14.82;11.35;;;13.60;84.40;;;;;;5080150;28;20089;-85
2021/10/15 05:28:28;;;;;;;17.48;13.43;;;13.60;84.40;;;;;;5079080;28;20024;-84
2021/10/15 05:30:57;;;;;;;15.93;12.50;;;13.60;84.60;;;;;;5080070;28;20034;-84
2021/10/15 05:33:24;;;;;;;16.70;12.63;;;13.60;84.80;;;;;;5080454;28;20038;-85
2021/10/15 05:35:50;;;;;;;17.60;11.93;;;13.60;84.90;;;;;;5096955;28;20028;-85
2021/10/15 05:38:15;;;;;;;19.65;12.43;;;13.60;85.00;;;;;;5082389;28;20020;-84
2021/10/15 05:40:41;;;;;;;19.80;13.70;;;13.60;85.00;;;;;;5080106;28;20494;-86
2021/10/15 05:43:07;;;;;;;21.08;14.27;;;13.60;85.00;;;;;;5076113;28;20017;-86
2021/10/15 05:45:33;;;;;;;19.50;12.98;;;13.50;85.10;;;;;;5067726;28;20020;-85
2021/10/15 05:47:58;;;;;;;16.65;12.77;;;13.50;85.10;;;;;;5093525;28;20509;-83
2021/10/15 05:50:25;;;;;;;15.85;13.00;;;13.50;85.40;;;;;;5114968;28;20024;-84
2021/10/15 05:52:52;;;;;;;16.15;13.63;;;13.50;85.60;;;;;;5079672;28;20028;-84
2021/10/15 06:00:25;;;;;;;19.45;14.95;;;13.50;85.80;;;;;;5098408;28;20036;-85
2021/10/15 06:02:51;;;;;;;20.05;14.25;;;13.50;85.90;;;;;;5096360;28;20019;-85
2021/10/15 06:15:50;;;;;;;19.50;14.30;;;13.50;86.00;;;;;;5083823;28;20060;-83
2021/10/15 06:18:18;;;;;;;19.15;14.20;;;13.50;86.00;;;;;;5092979;28;20035;-83
2021/10/15 06:20:44;;;;;;;20.17;15.20;;;13.50;86.00;;;;;;5087740;28;20024;-85
2021/10/15 06:23:11;;;;;;;17.02;13.82;;;13.50;86.00;;;;;;5078736;28;20027;-86
2021/10/15 06:25:37;;;;;;;16.80;14.25;;;13.50;86.10;;;;;;5078642;28;20020;-85
2021/10/15 06:28:04;;;;;;;16.67;13.23;;;13.50;86.20;;;;;;5112681;28;20032;-85
2021/10/15 06:30:34;;;;;;;21.02;14.43;;;13.50;86.20;;;;;;5076205;28;20119;-85
2021/10/15 06:33:00;;;;;;;20.73;13.05;;;13.60;86.30;;;;;;5107313;28;20040;-84
2021/10/15 06:35:26;;;;;;;18.55;13.68;;;13.60;86.30;;;;;;5078980;28;20039;-85
2021/10/15 06:37:52;;;;;;;21.30;15.35;;;13.60;86.30;;;;;;5095313;28;20028;-85
2021/10/15 06:40:19;;;;;;;18.55;14.40;;;13.60;86.30;;;;;;5077412;28;20371;-85
2021/10/15 06:42:46;;;;;;;22.30;15.90;;;13.60;86.50;;;;;;5113957;28;20046;-85
2021/10/15 06:45:12;;;;;;;21.90;16.10;;;13.60;87.00;;;;;;5072705;28;20024;-85
2021/10/15 06:47:38;;;;;;;20.58;14.75;;;13.60;87.20;;;;;;5078438;28;20543;-86
2021/10/15 06:50:04;;;;;;;20.73;15.43;;;13.60;87.30;;;;;;5092710;28;20038;-85
2021/10/15 06:52:36;;;;;;;19.23;15.63;;;13.60;87.60;;;;;;5094105;28;20032;-86
2021/10/15 06:55:04;;;;;;;17.85;14.38;;;13.50;87.70;;;;;;5094401;28;20099;-86
2021/10/15 06:57:29;;;;;;;21.02;15.50;;;13.50;87.90;;;;;;5076538;28;20038;-87
2021/10/15 06:59:55;;;;;;;22.60;16.08;;;13.50;88.00;;;;;;5077441;28;20222;-87
2021/10/15 07:02:21;;;;;;;20.92;16.08;;;13.50;88.20;;;;;;5094573;28;20032;-88
2021/10/15 07:04:46;;;;;;;21.48;15.18;;;13.60;88.40;;;;;;5087261;28;20395;-88
2021/10/15 07:07:32;;;;;;;11.15;9.88;;;13.60;88.60;;;;;;5080765;28;20024;-88
2021/10/15 07:10:00;;;;;;;8.55;6.53;;;13.50;88.50;;;;;;5095443;28;20027;-88
2021/10/15 07:12:32;;;;;;;6.07;4.35;;;13.50;88.40;;;;;;5094742;28;20023;-87
2021/10/15 07:14:58;;;;;;;4.75;3.72;;;13.40;88.30;;;;;;5078560;28;20050;-89
2021/10/15 07:17:24;;;;;;;3.58;2.53;;;13.40;88.20;;;;;;5094655;28;20032;-87
2021/10/15 07:19:49;;;;;;;7.30;2.50;;;13.50;88.10;;;;;;5077788;28;20054;-86
2021/10/15 07:22:15;;;;;;;3.70;1.60;;;13.50;88.10;;;;;;5077333;28;20028;-86
2021/10/15 07:24:41;;;;;;;1.45;1.15;;;13.40;87.60;;;;;;5080243;28;20543;-86
2021/10/15 07:27:06;;;;;;;0.73;0.70;;;13.40;87.60;;;;;;5060728;28;20039;-87
2021/10/15 07:29:32;;;;;;;0.52;0.40;;;13.40;87.30;;;;;;5078123;28;20478;-88
2021/10/15 07:31:58;;;;;;;0.52;0.30;;;13.30;86.90;;;;;;5094077;28;20064;-89
2021/10/15 07:34:24;;;;;;;0.45;0.30;;;13.20;86.40;;;;;;5077647;28;20028;-87
2021/10/15 07:36:49;;;;;;;1.92;0.35;;;13.20;86.40;;;;;;5091468;28;20035;-86
2021/10/15 07:39:15;;;;;;;0.73;0.40;;;13.20;86.50;;;;;;5070215;28;20470;-87
2021/10/15 07:41:43;;;;;;;0.75;0.40;;;13.20;86.40;;;;;;5089793;28;20109;-86
2021/10/15 07:44:13;;;;;;;1.75;0.40;;;13.20;86.30;;;;;;5089888;28;20020;-87
2021/10/15 07:46:40;;;;;;;3.05;0.40;;;13.20;86.20;;;;;;5067024;28;20036;-88
2021/10/15 07:49:06;;;;;;;0.98;0.43;;;13.10;86.00;;;;;;5091739;28;20032;-86
2021/10/15 07:51:33;;;;;;;2.67;0.70;;;13.10;85.90;;;;;;5073780;28;20382;-87
2021/10/15 07:53:58;;;;;;;2.08;0.50;;;13.10;85.90;;;;;;5069870;28;20025;-86
2021/10/15 07:56:24;;;;;;;3.80;0.82;;;13.10;85.80;;;;;;5088051;28;20024;-86
2021/10/15 07:58:50;;;;;;;2.53;0.52;;;13.10;85.80;;;;;;5055830;28;20475;-84
2021/10/15 08:01:16;;;;;;;2.38;0.70;;;13.10;85.80;;;;;;5062133;28;20390;-84
2021/10/15 08:03:41;;;;;;;3.65;0.70;;;13.10;85.90;;;;;;5089513;28;20022;-83
2021/10/15 08:06:08;;;;;;;3.03;0.63;;;13.10;85.70;;;;;;5090100;28;20024;-84
2021/10/15 08:08:34;;;;;;;5.00;0.70;;;13.10;85.40;;;;;;5085350;28;20491;-84
2021/10/15 08:10:59;;;;;;;2.95;0.98;;;13.00;85.30;;;;;;5100114;28;20063;-86
2021/10/15 08:13:25;;;;;;;2.92;0.70;;;13.10;85.20;;;;;;5055511;28;20031;-87
2021/10/15 08:15:51;;;;;;;5.35;0.82;;;13.10;85.40;;;;;;5073503;28;20056;-86
2021/10/15 08:18:17;;;;;;;2.85;0.60;;;13.10;85.30;;;;;;5073198;28;20120;-86
2021/10/15 08:20:46;;;;;;;4.03;0.80;;;13.10;85.30;;;;;;5084975;28;20433;-87
2021/10/15 08:23:12;;;;;;;2.58;0.80;;;13.10;85.20;;;;;;5074564;28;20036;-86
2021/10/15 08:25:39;;;;;;;6.05;1.05;;;13.10;85.20;;;;;;5070631;28;20025;-83
2021/10/15 08:28:05;;;;;;;2.25;0.73;;;13.20;85.30;;;;;;5070713;28;20029;-84
2021/10/15 08:30:31;;;;;;;3.33;0.77;;;13.20;85.10;;;;;;5073427;28;20492;-84
2021/10/15 08:32:57;;;;;;;3.13;0.70;;;13.20;85.10;;;;;;5073053;28;20025;-83
2021/10/15 08:35:24;;;;;;;4.55;0.70;;;13.30;85.00;;;;;;5074509;28;20024;-87
2021/10/15 08:37:53;;;;;;;4.20;0.95;;;13.30;85.10;;;;;;5054990;28;20033;-87
2021/10/15 08:40:19;;;;;;;3.65;0.90;;;13.30;84.70;;;;;;5083126;28;20464;-87
2021/10/15 08:42:50;;;;;;;4.90;1.20;;;13.30;84.80;;;;;;5089545;28;20394;-86
2021/10/15 08:45:16;;;;;;;5.85;1.00;;;13.30;85.00;;;;;;5089445;28;20027;-87
2021/10/15 08:47:42;;;;;;;6.03;0.80;;;13.30;85.10;;;;;;5088961;28;20020;-86
2021/10/15 08:50:08;;;;;;;4.43;1.13;;;13.30;85.20;;;;;;5066151;28;20028;-86
2021/10/15 08:52:33;;;;;;;5.60;0.98;;;13.30;85.30;;;;;;5068998;28;20280;-86
2021/10/15 08:54:59;;;;;;;6.00;1.30;;;13.40;85.60;;;;;;5087618;28;20035;-83
2021/10/15 08:57:25;;;;;;;4.75;1.02;;;13.40;85.60;;;;;;5073156;28;20393;-83
2021/10/15 08:59:51;;;;;;;4.95;0.80;;;13.50;85.80;;;;;;5073913;28;20028;-84
2021/10/15 09:02:22;;;;;;;6.28;1.33;;;13.50;85.80;;;;;;5074278;28;20085;-84
2021/10/15 09:05:06;;;;;;;7.43;1.25;;;13.60;85.50;;;;;;5074295;28;20537;-84
2021/10/15 09:07:31;;;;;;;6.40;1.15;;;13.70;85.40;;;;;;5088622;28;20024;-84
2021/10/15 09:10:16;;;;;;;5.03;1.40;;;13.70;85.40;;;;;;5075824;28;20040;-86
2021/10/15 09:12:47;;;;;;;3.92;1.00;;;13.70;85.20;;;;;;5091257;28;20076;-86
2021/10/15 09:15:14;;;;;;;3.60;1.00;;;13.80;85.50;;;;;;5092691;28;20500;-86
2021/10/15 09:17:51;;;;;;;3.65;1.10;;;13.80;85.30;;;;;;5075174;28;20169;-87
2021/10/15 09:20:31;;;;;;;4.13;1.08;;;13.90;85.20;;;;;;5076145;28;20486;-86
2021/10/15 09:22:57;;;;;;;7.25;1.17;;;13.80;85.00;;;;;;5089221;28;20024;-86
2021/10/15 09:25:34;;;;;;;8.98;1.23;;;13.80;85.00;;;;;;5108743;28;20027;-86
2021/10/15 09:28:00;;;;;;;6.53;1.20;;;13.80;85.00;;;;;;5088891;28;20045;-86
2021/10/15 09:30:31;;;;;;;5.43;1.40;;;13.90;85.10;;;;;;5090081;28;20508;-86
2021/10/15 09:32:59;;;;;;;3.70;1.27;;;13.90;84.80;;;;;;5089232;28;20505;-86
2021/10/15 09:35:30;;;;;;;5.35;1.60;;;14.00;84.90;;;;;;5091849;28;20024;-86
2021/10/15 09:38:02;;;;;;;3.90;1.08;;;14.00;84.40;;;;;;5089797;28;20036;-86
2021/10/15 09:40:35;;;;;;;6.32;1.30;;;14.00;84.20;;;;;;5090483;28;20040;-86
2021/10/15 09:43:05;;;;;;;5.10;1.10;;;14.00;84.40;;;;;;5105867;27;20497;-86
2021/10/15 09:45:40;;;;;;;5.05;1.58;;;14.10;85.00;;;;;;5087268;28;20071;-85
2021/10/15 09:48:22;;;;;;;6.00;1.30;;;14.30;84.90;;;;;;5082919;28;20144;-86
2021/10/15 09:51:15;;;;;;;8.55;1.95;;;14.50;84.40;;;;;;5082705;28;20497;-86
2021/10/15 09:54:01;;;;;;;6.28;1.75;;;14.70;84.10;;;;;;5088238;28;20020;-86
2021/10/15 09:56:41;;;;;;;6.28;1.90;;;14.70;83.30;;;;;;5064196;28;20036;-83
2021/10/15 09:59:07;;;;;;;8.68;1.60;;;14.80;82.80;;;;;;5089956;28;20103;-83
2021/10/15 10:01:35;;;;;;;8.25;1.95;;;14.90;82.90;;;;;;5072869;28;20032;-83
2021/10/15 10:04:03;;;;;;;9.10;1.70;;;15.10;82.80;;;;;;5090292;28;20793;-83
2021/10/15 10:06:29;;;;;;;6.28;1.50;;;15.20;82.00;;;;;;5074593;28;20081;-83
2021/10/15 10:08:56;;;;;;;7.15;1.40;;;15.30;81.60;;;;;;5086443;28;20028;-82
2021/10/15 10:11:22;;;;;;;9.77;1.60;;;15.20;81.50;;;;;;5051637;28;20052;-81
2021/10/15 10:13:48;;;;;;;5.38;1.30;;;15.20;81.60;;;;;;5057949;28;20028;-83
2021/10/15 10:16:15;;;;;;;10.57;1.42;;;15.30;80.60;;;;;;5108122;27;20025;-83
2021/10/15 10:18:45;;;;;;;9.38;1.70;;;15.40;80.60;;;;;;5080597;28;20032;-82
2021/10/15 10:21:19;;;;;;;8.38;1.80;;;15.40;80.10;;;;;;5092063;28;20101;-82
2021/10/15 10:24:09;;;;;;;4.85;1.33;;;15.40;80.10;;;;;;5096722;28;20110;-82
2021/10/15 10:26:51;;;;;;;10.57;1.60;;;15.50;80.10;;;;;;5092507;28;20028;-82
2021/10/15 10:29:17;;;;;;;4.38;1.30;;;15.60;79.50;;;;;;5083469;28;20041;-82
2021/10/15 10:31:43;;;;;;;8.02;1.88;;;15.60;79.30;;;;;;5073372;28;20028;-82
2021/10/15 10:34:22;;;;;;;5.78;1.60;;;15.70;77.90;;;;;;5093535;28;20069;-82
2021/10/15 10:37:10;;;;;;;7.15;1.83;;;15.80;77.90;;;;;;5097482;28;20034;-84
2021/10/15 10:39:37;;;;;;;5.28;1.50;;;15.90;77.70;;;;;;5094961;28;20504;-84
2021/10/15 10:42:14;;;;;;;5.82;1.60;;;16.10;76.60;;;;;;5081955;28;20021;-84
2021/10/15 10:50:24;;;;;;;6.57;1.55;;;16.40;76.10;;;;;;5067379;28;20828;-83
2021/10/15 10:52:50;;;;;;;7.10;1.33;;;16.30;75.10;;;;;;5039937;28;20041;-75
2021/10/15 10:55:39;;;;;;;7.18;1.40;;;16.20;74.10;;;;;;5048322;28;20060;-92
2021/10/15 10:58:31;;;;;;;7.43;1.77;;;16.10;73.60;;;;;;5056049;28;20036;-72
2021/10/15 11:01:39;;;;;;;6.25;1.15;;;16.00;73.10;;;;;;5047809;28;20380;-70
2021/10/15 11:04:25;;;;;;;8.45;1.48;;;15.80;72.10;;;;;;5049971;28;20380;-70
2021/10/15 11:07:03;;;;;;;5.25;1.30;;;15.60;71.80;;;;;;5051149;28;20033;-71
2021/10/15 11:09:40;;;;;;;5.65;1.10;;;15.50;72.20;;;;;;5047433;28;20033;-69
2021/10/15 11:12:08;;;;;;;8.55;1.35;;;15.40;73.00;;;;;;5047044;28;20545;-70
2021/10/15 11:14:56;;;;;;;8.05;1.73;;;15.30;73.60;;;;;;5044790;28;20025;-70
2021/10/15 11:17:32;;;;;;;7.97;1.70;;;15.20;73.80;;;;;;5038158;28;20044;-70
2021/10/15 11:20:10;;;;;;;6.40;1.48;;;15.30;74.10;;;;;;5038278;28;20025;-77
2021/10/15 11:22:38;;;;;;;9.73;1.75;;;15.50;74.00;;;;;;5046204;28;20100;-69
2021/10/15 11:38:46;;;;;;;7.03;1.65;;;16.80;68.60;;;;;;5128566;27;20138;-78
2021/10/15 11:41:12;;;;;;;7.00;1.48;;;16.70;69.30;;;;;;5091159;28;20028;-78
2021/10/15 11:43:43;;;;;;;8.05;1.58;;;16.50;69.20;;;;;;5109009;28;20424;-75
2021/10/15 11:46:20;;;;;;;5.55;1.33;;;16.30;68.20;;;;;;5104369;28;20019;-79
2021/10/15 11:48:49;;;;;;;3.58;1.30;;;16.20;68.80;;;;;;5100087;28;21015;-80
2021/10/15 11:51:26;;;;;;;6.63;1.40;;;16.00;68.70;;;;;;5074726;28;20107;-74
2021/10/15 11:54:02;;;;;;;4.20;1.30;;;16.00;67.60;;;;;;5098536;28;20034;-76
2021/10/15 12:16:31;;;;;;;6.07;1.42;;;16.80;62.30;;;;;;5127985;27;20514;-82
2021/10/15 12:19:18;;;;;;;7.00;1.70;;;16.80;65.30;;;;;;5114921;27;20115;-79
2021/10/15 12:21:58;;;;;;;8.10;1.60;;;17.00;65.50;;;;;;5118143;27;20612;-86
2021/10/15 12:24:45;;;;;;;7.95;1.80;;;17.20;63.40;;;;;;5130548;27;20023;-72
2021/10/15 12:27:10;;;;;;;7.47;1.70;;;17.30;62.30;;;;;;5113048;27;20099;-82
2021/10/15 12:29:49;;;;;;;9.65;2.00;;;17.20;61.20;;;;;;5127862;27;20032;-82
2021/10/15 12:32:17;;;;;;;10.07;2.25;;;17.00;62.00;;;;;;5116144;27;20027;-72
2021/10/15 12:35:01;;;;;;;10.20;2.70;;;16.80;62.70;;;;;;5127951;27;20023;-81
2021/10/15 12:37:31;;;;;;;12.25;2.38;;;16.60;63.70;;;;;;5119134;27;20031;-80
2021/10/15 12:40:09;;;;;;;8.65;2.00;;;16.40;64.20;;;;;;5114655;27;20032;-81
2021/10/15 12:42:35;;;;;;;13.02;2.45;;;16.30;64.10;;;;;;5114966;27;20419;-78
2021/10/15 12:45:09;;;;;;;14.18;2.40;;;16.30;64.20;;;;;;5110283;27;20042;-72
2021/10/15 12:47:35;;;;;;;10.63;2.40;;;16.30;63.80;;;;;;5102703;27;20028;-72
2021/10/15 12:50:04;;;;;;;12.40;2.42;;;16.50;63.70;;;;;;5103765;27;20038;-72
2021/10/15 12:52:37;;;;;;;9.30;2.22;;;16.90;63.70;;;;;;5105628;27;20023;-73
2021/10/15 12:55:18;;;;;;;10.43;2.90;;;17.10;62.50;;;;;;5134901;27;20050;-72
2021/10/15 12:57:46;;;;;;;9.60;2.00;;;17.20;62.10;;;;;;5131346;27;20026;-77
2021/10/15 13:00:14;;;;;;;9.82;2.42;;;17.70;60.60;;;;;;5111876;27;20073;-72
2021/10/15 13:02:40;;;;;;;10.70;2.50;;;18.10;58.60;;;;;;5104000;27;20015;-72
2021/10/15 13:05:10;;;;;;;13.85;2.78;;;18.30;58.60;;;;;;5126834;27;20039;-72
2021/10/15 13:07:38;;;;;;;10.68;2.78;;;18.30;59.40;;;;;;5130426;27;20083;-72
2021/10/15 13:10:19;;;;;;;10.35;2.70;;;18.30;59.10;;;;;;5126559;27;20046;-77
2021/10/15 13:12:47;;;;;;;10.73;2.95;;;18.30;59.10;;;;;;5118202;27;20024;-76
2021/10/15 13:15:15;;;;;;;13.70;2.53;;;18.20;57.00;;;;;;5105005;27;20036;-72
2021/10/15 13:17:41;;;;;;;6.72;2.30;;;18.30;56.50;;;;;;5102842;27;20027;-72
2021/10/15 13:20:08;;;;;;;12.20;2.65;;;18.80;55.70;;;;;;5103451;27;20042;-72
2021/10/15 13:22:35;;;;;;;8.48;2.08;;;19.60;54.50;;;;;;5125949;27;20023;-76
2021/10/15 13:25:01;;;;;;;11.27;2.58;;;20.40;49.80;;;;;;5110400;27;20031;-76
2021/10/15 13:27:26;;;;;;;8.63;2.40;;;20.60;49.20;;;;;;5120528;27;20027;-77
2021/10/15 13:29:52;;;;;;;8.38;1.98;;;21.10;48.80;;;;;;5097264;27;20035;-77
2021/10/15 13:32:18;;;;;;;6.90;2.00;;;21.40;46.20;;;;;;5097821;27;20145;-77
2021/10/15 13:34:48;;;;;;;8.63;2.40;;;22.30;44.40;;;;;;5081463;28;20034;-77
2021/10/15 13:37:23;;;;;;;8.82;2.45;;;23.50;42.80;;;;;;5125618;27;20466;-77
2021/10/15 13:39:52;;;;;;;5.47;1.95;;;24.50;40.30;;;;;;5111491;27;20030;-75
2021/10/15 13:50:01;;;;;;;8.50;2.50;;;23.70;39.30;;;;;;5051730;27;20462;-71
2021/10/15 13:52:27;;;;;;;8.68;2.17;;;23.50;40.60;;;;;;5095664;27;20441;-72